createdAt,value
2023-01-12T00:02:20.961Z,1.92
2023-01-12T00:04:47.804Z,1.95
2023-01-12T00:07:16.018Z,1.40
2023-01-12T00:09:42.840Z,1.98
2023-01-12T00:12:11.824Z,2.10
2023-01-12T00:14:39.534Z,1.90
2023-01-12T00:17:06.756Z,2.28
2023-01-12T00:19:34.006Z,1.73
2023-01-12T00:22:05.813Z,2.97
2023-01-12T00:24:38.514Z,1.38
2023-01-12T00:27:08.322Z,1.63
2023-01-12T00:29:36.033Z,2.35
2023-01-12T00:32:03.331Z,1.65
2023-01-12T00:34:30.083Z,1.60
2023-01-12T00:36:57.570Z,1.50
2023-01-12T00:39:24.266Z,1.52
2023-01-12T00:42:09.474Z,1.42
2023-01-12T00:44:54.946Z,1.33
2023-01-12T00:47:21.693Z,1.60
2023-01-12T00:49:49.085Z,1.52
2023-01-12T00:52:30.018Z,1.60
2023-01-12T00:54:58.297Z,1.15
2023-01-12T00:57:25.205Z,2.60
2023-01-12T00:59:55.109Z,1.27
2023-01-12T01:02:22.722Z,1.75
2023-01-12T01:04:49.901Z,0.73
2023-01-12T01:07:17.216Z,0.80
2023-01-12T01:09:44.367Z,1.10
2023-01-12T01:12:11.123Z,1.50
2023-01-12T01:14:37.845Z,2.28
2023-01-12T01:17:04.706Z,0.85
2023-01-12T01:19:32.724Z,0.95
2023-01-12T01:21:59.539Z,1.10
2023-01-12T01:24:26.369Z,1.73
2023-01-12T01:26:53.025Z,1.50
2023-01-12T01:29:19.797Z,0.82
2023-01-12T01:31:47.741Z,1.27
2023-01-12T01:34:15.130Z,1.08
2023-01-12T01:36:42.691Z,0.95
2023-01-12T01:39:09.505Z,1.10
2023-01-12T01:41:36.190Z,1.77
2023-01-12T01:44:26.257Z,1.30
2023-01-12T01:46:59.266Z,1.20
2023-01-12T01:49:42.845Z,2.25
2023-01-12T01:52:24.429Z,1.60
2023-01-12T01:55:00.881Z,1.85
2023-01-12T01:57:40.194Z,1.80
2023-01-12T02:00:10.342Z,1.35
2023-01-12T02:02:38.461Z,2.45
2023-01-12T02:05:05.876Z,2.05
2023-01-12T02:07:32.974Z,2.03
2023-01-12T02:09:59.731Z,2.78
2023-01-12T02:12:45.093Z,1.85
2023-01-12T02:15:30.285Z,1.70
2023-01-12T02:18:17.943Z,2.17
2023-01-12T02:20:51.595Z,1.48
2023-01-12T02:23:41.087Z,1.58
2023-01-12T02:26:25.884Z,2.25
2023-01-12T02:29:17.317Z,1.65
2023-01-12T02:31:58.971Z,2.23
2023-01-12T02:34:41.584Z,2.47
2023-01-12T02:37:41.592Z,1.33
2023-01-12T02:40:26.942Z,1.88
2023-01-12T02:43:28.613Z,1.50
2023-01-12T02:46:21.458Z,1.77
2023-01-12T02:49:09.774Z,1.85
2023-01-12T02:51:52.000Z,1.90
2023-01-12T02:56:49.540Z,1.95
2023-01-12T02:59:28.866Z,1.88
2023-01-12T03:02:00.594Z,1.52
2023-01-12T03:04:28.144Z,3.28
2023-01-12T03:06:57.918Z,1.67
2023-01-12T03:09:38.462Z,1.77
2023-01-12T03:12:16.907Z,1.67
2023-01-12T03:14:47.769Z,1.70
2023-01-12T03:17:36.379Z,1.85
2023-01-12T03:20:14.642Z,2.20
2023-01-12T03:22:42.332Z,1.60
2023-01-12T03:25:13.495Z,1.88
2023-01-12T03:27:46.103Z,2.70
2023-01-12T03:30:37.549Z,1.80
2023-01-12T03:33:05.267Z,2.73
2023-01-12T03:35:38.071Z,2.13
2023-01-12T03:38:28.373Z,2.20
2023-01-12T03:41:09.385Z,1.83
2023-01-12T03:43:43.867Z,3.22
2023-01-12T03:46:29.213Z,2.55
2023-01-12T03:49:06.196Z,2.35
2023-01-12T03:51:37.814Z,2.45
2023-01-12T03:54:07.990Z,2.00
2023-01-12T03:56:36.261Z,2.30
2023-01-12T03:59:04.652Z,2.42
2023-01-12T04:01:32.119Z,2.60
2023-01-12T04:03:58.821Z,1.52
2023-01-12T04:06:25.558Z,1.83
2023-01-12T04:08:52.254Z,1.77
2023-01-12T04:11:37.436Z,2.20
2023-01-12T04:14:04.137Z,2.00
2023-01-12T04:16:30.929Z,1.80
2023-01-12T04:18:57.748Z,1.58
2023-01-12T04:21:43.245Z,1.75
2023-01-12T04:24:09.936Z,1.50
2023-01-12T04:26:36.579Z,2.08
2023-01-12T04:29:03.302Z,1.88
2023-01-12T04:31:30.020Z,2.05
2023-01-12T04:33:56.714Z,1.90
2023-01-12T04:36:23.391Z,1.90
2023-01-12T04:38:50.040Z,1.83
2023-01-12T04:41:16.708Z,1.90
2023-01-12T04:43:43.425Z,1.77
2023-01-12T04:46:10.574Z,2.17
2023-01-12T04:48:43.539Z,1.58
2023-01-12T04:51:10.285Z,2.72
2023-01-12T04:53:37.034Z,2.13
2023-01-12T04:56:05.331Z,2.17
2023-01-12T04:58:32.363Z,1.83
2023-01-12T05:01:07.537Z,1.50
2023-01-12T05:03:34.273Z,2.75
2023-01-12T05:06:02.494Z,1.60
2023-01-12T05:08:48.047Z,2.40
2023-01-12T05:11:15.018Z,1.80
2023-01-12T05:13:41.912Z,1.88
2023-01-12T05:16:15.436Z,1.05
2023-01-12T05:18:43.981Z,1.73
2023-01-12T05:21:13.988Z,2.10
2023-01-12T05:23:40.752Z,1.60
2023-01-12T05:26:07.907Z,1.45
2023-01-12T05:28:34.623Z,1.27
2023-01-12T05:31:13.378Z,1.83
2023-01-12T05:33:41.628Z,1.75
2023-01-12T05:36:11.090Z,2.15
2023-01-12T05:38:37.780Z,1.27
2023-01-12T05:41:07.192Z,1.00
2023-01-12T05:43:52.111Z,1.50
2023-01-12T05:46:22.899Z,1.10
2023-01-12T05:48:50.258Z,1.00
2023-01-12T05:51:18.043Z,1.00
2023-01-12T05:53:45.231Z,1.00
2023-01-12T05:56:28.067Z,0.82
2023-01-12T05:58:58.541Z,1.20
2023-01-12T06:01:26.353Z,1.80
2023-01-12T06:03:55.023Z,0.80
2023-01-12T06:06:24.144Z,0.60
2023-01-12T06:08:52.725Z,0.90
2023-01-12T06:11:38.862Z,1.25
2023-01-12T06:14:06.230Z,0.85
2023-01-12T06:16:32.920Z,0.85
2023-01-12T06:18:59.592Z,0.77
2023-01-12T06:21:26.296Z,0.57
2023-01-12T06:23:52.949Z,1.17
2023-01-12T06:26:19.733Z,0.65
2023-01-12T06:28:46.534Z,0.73
2023-01-12T06:31:14.666Z,0.90
2023-01-12T06:33:43.141Z,1.30
2023-01-12T06:36:10.807Z,1.10
2023-01-12T06:38:37.811Z,0.90
2023-01-12T06:41:30.709Z,0.47
2023-01-12T06:43:57.729Z,0.63
2023-01-12T06:46:26.127Z,1.13
2023-01-12T06:48:55.462Z,1.00
2023-01-12T06:51:22.174Z,0.63
2023-01-12T06:53:48.929Z,1.80
2023-01-12T06:56:15.830Z,0.52
2023-01-12T06:58:43.376Z,0.50
2023-01-12T07:01:10.573Z,0.30
2023-01-12T07:03:37.321Z,0.50
2023-01-12T07:06:04.184Z,0.40
2023-01-12T07:08:32.467Z,0.40
2023-01-12T07:11:04.069Z,0.28
2023-01-12T07:13:31.696Z,0.50
2023-01-12T07:16:00.020Z,0.50
2023-01-12T07:18:27.650Z,0.25
2023-01-12T07:20:54.377Z,0.70
2023-01-12T07:23:21.150Z,0.40
2023-01-12T07:25:47.834Z,0.28
2023-01-12T07:28:14.893Z,0.30
2023-01-12T07:30:41.649Z,0.50
2023-01-12T07:33:10.501Z,0.13
2023-01-12T07:35:37.273Z,0.20
2023-01-12T07:38:04.420Z,0.50
2023-01-12T07:40:31.125Z,0.40
2023-01-12T07:43:02.671Z,0.22
2023-01-12T07:45:30.377Z,0.50
2023-01-12T07:47:57.559Z,0.20
2023-01-12T07:50:26.435Z,0.40
2023-01-12T07:52:53.275Z,0.47
2023-01-12T07:55:20.554Z,0.73
2023-01-12T07:58:03.758Z,0.40
2023-01-12T08:00:31.185Z,0.55
2023-01-12T08:03:11.029Z,0.28
2023-01-12T08:05:39.128Z,0.20
2023-01-12T08:08:07.082Z,0.52
2023-01-12T08:10:33.925Z,0.20
2023-01-12T08:13:00.674Z,0.40
2023-01-12T08:15:33.513Z,0.30
2023-01-12T08:18:06.069Z,0.30
2023-01-12T08:20:35.905Z,0.20
2023-01-12T08:23:16.896Z,0.22
2023-01-12T08:25:49.085Z,0.50
2023-01-12T08:28:24.955Z,0.20
2023-01-12T08:30:52.280Z,0.40
2023-01-12T08:33:19.721Z,0.20
2023-01-12T08:35:47.270Z,0.20
2023-01-12T08:38:14.255Z,0.22
2023-01-12T08:40:59.574Z,0.20
2023-01-12T08:43:45.084Z,0.15
2023-01-12T08:46:12.078Z,0.28
2023-01-12T08:48:39.428Z,0.50
2023-01-12T08:51:08.037Z,0.28
2023-01-12T08:53:34.976Z,0.35
2023-01-12T08:56:01.644Z,0.20
2023-01-12T08:58:28.637Z,0.30
2023-01-12T09:00:55.550Z,0.40
2023-01-12T09:03:22.393Z,0.55
2023-01-12T09:05:49.151Z,0.30
2023-01-12T09:08:15.815Z,0.30
2023-01-12T09:10:42.461Z,0.25
2023-01-12T09:13:11.815Z,0.40
2023-01-12T09:15:38.478Z,0.45
2023-01-12T09:18:05.155Z,0.57
2023-01-12T09:20:33.509Z,0.50
2023-01-12T09:23:04.054Z,0.40
2023-01-12T09:25:30.712Z,0.40
2023-01-12T09:27:57.976Z,0.82
2023-01-12T09:30:24.622Z,0.47
2023-01-12T09:32:51.315Z,0.60
2023-01-12T09:35:19.817Z,0.60
2023-01-12T09:37:46.469Z,0.60
2023-01-12T09:40:17.411Z,0.80
2023-01-12T09:43:10.534Z,0.55
2023-01-12T09:45:55.975Z,0.82
2023-01-12T09:48:24.118Z,0.70
2023-01-12T09:50:55.872Z,0.77
2023-01-12T09:53:31.242Z,0.95
2023-01-12T09:56:16.583Z,0.95
2023-01-12T09:58:59.540Z,1.15
2023-01-12T10:03:59.814Z,0.88
2023-01-12T10:06:26.589Z,0.60
2023-01-12T10:09:02.792Z,0.93
2023-01-12T10:11:51.147Z,1.10
2023-01-12T10:14:26.727Z,0.88
2023-01-12T10:17:23.992Z,0.82
2023-01-12T10:20:20.038Z,0.80
2023-01-12T10:22:54.529Z,0.90
2023-01-12T10:25:39.859Z,1.40
2023-01-12T10:28:22.947Z,1.33
2023-01-12T10:30:50.123Z,1.27
2023-01-12T10:33:20.978Z,0.80
2023-01-12T10:36:16.731Z,0.88
2023-01-12T10:38:56.697Z,1.00
2023-01-12T10:41:28.240Z,1.15
2023-01-12T10:43:54.924Z,1.15
2023-01-12T10:46:24.158Z,1.15
2023-01-12T10:48:54.924Z,1.30
2023-01-12T10:54:03.217Z,1.77
2023-01-12T10:56:52.759Z,1.23
2023-01-12T10:59:21.912Z,1.15
2023-01-12T11:01:53.188Z,1.40
2023-01-12T11:04:22.613Z,1.30
2023-01-12T11:07:04.993Z,1.30
2023-01-12T11:09:32.070Z,1.40
2023-01-12T11:12:02.000Z,1.42
2023-01-12T11:14:38.026Z,1.58
2023-01-12T11:17:36.966Z,2.03
2023-01-12T11:20:15.166Z,1.55
2023-01-12T11:22:44.317Z,1.63
2023-01-12T11:25:17.533Z,1.50
2023-01-12T11:27:49.075Z,1.58
2023-01-12T11:30:25.838Z,1.35
2023-01-12T11:33:10.218Z,1.42
2023-01-12T11:35:41.592Z,1.38
2023-01-12T11:38:22.944Z,1.15
2023-01-12T11:40:49.922Z,1.50
2023-01-12T11:43:47.341Z,1.52
2023-01-12T11:46:36.313Z,1.98
2023-01-12T11:49:22.876Z,1.70
2023-01-12T11:51:53.432Z,1.60
2023-01-12T11:54:20.217Z,2.00
2023-01-12T11:56:49.933Z,2.55
2023-01-12T11:59:43.222Z,1.90
2023-01-12T12:02:38.667Z,2.22
2023-01-12T12:05:26.658Z,2.28
2023-01-12T12:08:21.458Z,2.25
2023-01-12T12:10:52.209Z,2.30
2023-01-12T12:13:36.767Z,2.13
2023-01-12T12:16:28.499Z,2.10
2023-01-12T12:19:27.147Z,2.10
2023-01-12T12:22:08.883Z,1.77
2023-01-12T12:24:54.526Z,1.88
2023-01-12T12:27:49.552Z,2.00
2023-01-12T12:30:28.138Z,1.95
2023-01-12T12:33:24.829Z,1.80
2023-01-12T12:36:17.241Z,2.05
2023-01-12T12:41:51.133Z,2.40
2023-01-12T12:44:48.636Z,4.82
2023-01-12T12:47:44.321Z,4.60
2023-01-12T12:50:24.295Z,2.38
2023-01-12T12:53:14.315Z,2.30
2023-01-12T12:55:42.157Z,2.00
2023-01-12T12:58:21.196Z,2.10
2023-01-12T13:00:49.963Z,2.22
2023-01-12T13:03:46.329Z,2.10
2023-01-12T13:06:24.560Z,2.38
2023-01-12T13:09:02.072Z,3.10
2023-01-12T13:11:56.182Z,2.38
2023-01-12T13:14:38.010Z,2.10
2023-01-12T13:17:19.819Z,2.50
2023-01-12T13:20:24.009Z,1.92
2023-01-12T13:22:52.045Z,2.17
2023-01-12T13:25:27.090Z,1.80
2023-01-12T13:28:00.388Z,2.00
2023-01-12T13:30:30.043Z,2.47
2023-01-12T13:33:15.345Z,1.80
2023-01-12T13:35:44.988Z,2.95
2023-01-12T13:38:38.621Z,1.67
2023-01-12T13:41:14.540Z,2.17
2023-01-12T13:43:53.509Z,1.90
2023-01-12T13:46:24.999Z,2.30
2023-01-12T13:48:54.076Z,2.00
2023-01-12T13:51:39.717Z,2.22
2023-01-12T13:54:12.471Z,2.38
2023-01-12T13:56:39.448Z,2.22
2023-01-12T13:59:14.668Z,2.15
2023-01-12T14:01:41.559Z,1.90
2023-01-12T14:04:19.959Z,2.35
2023-01-12T14:07:06.653Z,1.50
2023-01-12T14:10:14.936Z,1.88
2023-01-12T14:13:06.344Z,1.85
2023-01-12T14:15:57.825Z,2.30
2023-01-12T14:18:27.340Z,2.20
2023-01-12T14:20:59.427Z,1.67
2023-01-12T14:23:35.509Z,1.80
2023-01-12T14:26:14.033Z,1.73
2023-01-12T14:28:46.578Z,1.65
2023-01-12T14:31:19.032Z,1.25
2023-01-12T14:33:55.262Z,1.60
2023-01-12T14:36:42.757Z,1.55
2023-01-12T14:39:16.849Z,1.17
2023-01-12T14:42:06.712Z,1.10
2023-01-12T14:44:55.084Z,1.30
2023-01-12T14:47:28.401Z,1.40
2023-01-12T14:49:55.366Z,1.45
2023-01-12T14:52:31.318Z,1.50
2023-01-12T14:55:37.827Z,1.30
2023-01-12T14:58:06.149Z,1.48
2023-01-12T15:00:35.462Z,1.30
2023-01-12T15:03:07.885Z,1.75
2023-01-12T15:05:36.732Z,1.60
2023-01-12T15:08:30.999Z,1.70
2023-01-12T15:11:08.664Z,1.33
2023-01-12T15:13:37.299Z,1.40
2023-01-12T15:16:23.958Z,1.70
2023-01-12T15:19:09.911Z,1.40
2023-01-12T15:21:56.903Z,1.77
2023-01-12T15:24:43.061Z,2.92
2023-01-12T15:27:12.505Z,3.20
2023-01-12T15:29:39.349Z,2.92
2023-01-12T15:32:20.124Z,2.03
2023-01-12T15:34:47.335Z,2.30
2023-01-12T15:37:16.622Z,1.80
2023-01-12T15:39:43.323Z,2.25
2023-01-12T15:42:17.936Z,2.28
2023-01-12T15:44:45.293Z,1.83
2023-01-12T15:47:13.977Z,2.53
2023-01-12T15:49:48.682Z,2.50
2023-01-12T15:52:21.262Z,1.80
2023-01-12T15:54:48.259Z,2.30
2023-01-12T15:57:15.602Z,2.20
2023-01-12T15:59:42.694Z,2.53
2023-01-12T16:02:34.865Z,1.60
2023-01-12T16:05:05.902Z,1.63
2023-01-12T16:07:32.608Z,1.70
2023-01-12T16:09:59.361Z,1.77
2023-01-12T16:12:26.171Z,1.33
2023-01-12T16:14:53.112Z,1.20
2023-01-12T16:17:19.819Z,1.80
2023-01-12T16:19:46.539Z,1.20
2023-01-12T16:22:22.753Z,1.20
2023-01-12T16:24:51.900Z,1.08
2023-01-12T16:27:20.750Z,1.42
2023-01-12T16:29:47.567Z,1.65
2023-01-12T16:32:15.065Z,1.33
2023-01-12T16:34:42.525Z,1.10
2023-01-12T16:37:13.758Z,1.27
2023-01-12T16:39:41.465Z,1.45
2023-01-12T16:42:08.763Z,1.20
2023-01-12T16:44:37.701Z,1.08
2023-01-12T16:47:05.420Z,1.30
2023-01-12T16:49:35.932Z,1.02
2023-01-12T16:52:04.135Z,1.40
2023-01-12T16:54:31.022Z,1.30
2023-01-12T16:56:58.894Z,1.60
2023-01-12T16:59:28.459Z,1.52
2023-01-12T17:01:55.612Z,1.23
2023-01-12T17:04:23.233Z,1.63
2023-01-12T17:06:50.054Z,1.60
2023-01-12T17:09:17.860Z,1.63
2023-01-12T17:11:44.858Z,1.92
2023-01-12T17:14:25.048Z,2.05
2023-01-12T17:16:57.467Z,1.70
2023-01-12T17:19:27.155Z,1.95
2023-01-12T17:21:58.045Z,1.80
2023-01-12T17:24:25.504Z,2.17
2023-01-12T17:26:53.722Z,2.17
2023-01-12T17:29:21.774Z,3.60
2023-01-12T17:31:49.560Z,2.35
2023-01-12T17:34:16.497Z,2.00
2023-01-12T17:36:43.589Z,2.40
2023-01-12T17:39:10.699Z,1.88
2023-01-12T17:41:55.956Z,2.20
2023-01-12T17:44:22.706Z,2.20
2023-01-12T17:46:49.500Z,2.42
2023-01-12T17:49:16.364Z,2.00
2023-01-12T17:51:43.341Z,2.67
2023-01-12T17:54:12.652Z,2.17
2023-01-12T17:56:39.422Z,2.20
2023-01-12T17:59:06.533Z,2.10
2023-01-12T18:01:36.078Z,2.15
2023-01-12T18:04:03.556Z,1.65
2023-01-12T18:06:30.884Z,1.77
2023-01-12T18:08:59.528Z,1.63
2023-01-12T18:11:27.374Z,1.90
2023-01-12T18:13:55.073Z,1.70
2023-01-12T18:16:22.183Z,2.33
2023-01-12T18:18:49.655Z,1.27
2023-01-12T18:21:20.588Z,1.65
2023-01-12T18:23:48.739Z,1.48
2023-01-12T18:26:18.830Z,2.00
2023-01-12T18:28:45.863Z,1.33
2023-01-12T18:31:24.339Z,1.45
2023-01-12T18:33:54.755Z,1.40
2023-01-12T18:36:24.030Z,1.73
2023-01-12T18:38:52.534Z,1.65
2023-01-12T18:41:39.042Z,1.60
2023-01-12T18:44:06.824Z,1.80
2023-01-12T18:46:53.409Z,2.00
2023-01-12T18:49:24.725Z,1.48
2023-01-12T18:52:10.606Z,1.63
2023-01-12T18:54:47.926Z,1.60
2023-01-12T18:57:19.270Z,1.58
2023-01-12T18:59:47.162Z,1.75
2023-01-12T19:02:15.226Z,1.38
2023-01-12T19:05:02.703Z,1.60
2023-01-12T19:07:49.603Z,1.92
2023-01-12T19:10:16.573Z,1.83
2023-01-12T19:12:46.168Z,1.52
2023-01-12T19:15:32.023Z,1.60
2023-01-12T19:17:58.695Z,1.55
2023-01-12T19:20:31.679Z,1.90
2023-01-12T19:23:17.004Z,1.40
2023-01-12T19:26:02.193Z,1.30
2023-01-12T19:28:39.065Z,1.55
2023-01-12T19:31:10.928Z,1.33
2023-01-12T19:33:38.910Z,1.50
2023-01-12T19:36:08.342Z,1.30
2023-01-12T19:38:38.725Z,1.48
2023-01-12T19:41:33.780Z,1.25
2023-01-12T19:44:05.130Z,1.35
2023-01-12T19:46:33.115Z,1.60
2023-01-12T19:49:00.027Z,1.48
2023-01-12T19:51:26.944Z,1.27
2023-01-12T19:53:53.698Z,0.90
2023-01-12T19:56:20.444Z,1.70
2023-01-12T19:58:47.177Z,1.42
2023-01-12T20:01:21.582Z,1.15
2023-01-12T20:03:50.410Z,1.42
2023-01-12T20:06:17.497Z,1.33
2023-01-12T20:08:44.258Z,1.17
2023-01-12T20:11:11.119Z,1.80
2023-01-12T20:13:38.053Z,1.63
2023-01-12T20:16:09.832Z,1.67
2023-01-12T20:18:36.644Z,1.55
2023-01-12T20:21:08.233Z,1.40
2023-01-12T20:23:35.178Z,1.00
2023-01-12T20:26:05.000Z,1.50
2023-01-12T20:28:31.636Z,1.60
2023-01-12T20:31:01.413Z,1.55
2023-01-12T20:33:28.333Z,1.67
2023-01-12T20:35:55.163Z,1.63
2023-01-12T20:38:22.614Z,1.40
2023-01-12T20:40:50.238Z,1.58
2023-01-12T20:43:16.952Z,1.38
2023-01-12T20:45:44.203Z,1.23
2023-01-12T20:48:13.707Z,1.73
2023-01-12T20:50:44.992Z,1.27
2023-01-12T20:53:13.728Z,1.63
2023-01-12T20:55:50.517Z,1.58
2023-01-12T20:58:17.761Z,1.50
2023-01-12T21:00:44.978Z,1.55
2023-01-12T21:03:11.709Z,1.73
2023-01-12T21:05:44.449Z,1.15
2023-01-12T21:08:11.677Z,1.20
2023-01-12T21:10:39.753Z,1.50
2023-01-12T21:13:07.676Z,1.42
2023-01-12T21:15:34.480Z,1.20
2023-01-12T21:18:01.194Z,1.35
2023-01-12T21:20:28.114Z,1.10
2023-01-12T21:22:55.016Z,1.40
2023-01-12T21:25:22.507Z,1.35
2023-01-12T21:27:49.162Z,1.08
2023-01-12T21:30:16.168Z,1.20
2023-01-12T21:32:43.910Z,1.60
2023-01-12T21:35:10.837Z,1.25
2023-01-12T21:37:37.572Z,1.23
2023-01-12T21:40:04.883Z,1.27
2023-01-12T21:42:50.296Z,1.17
2023-01-12T21:45:17.224Z,1.38
2023-01-12T21:47:46.222Z,1.27
2023-01-12T21:50:12.954Z,1.55
2023-01-12T21:52:41.356Z,1.77
2023-01-12T21:55:12.499Z,1.60
2023-01-12T21:57:43.339Z,1.65
2023-01-12T22:00:32.001Z,1.48
2023-01-12T22:03:01.417Z,1.70
2023-01-12T22:05:28.265Z,1.50
2023-01-12T22:07:55.252Z,1.98
2023-01-12T22:10:23.371Z,1.85
2023-01-12T22:12:52.524Z,1.98
2023-01-12T22:15:19.613Z,1.90
2023-01-12T22:17:46.561Z,1.48
2023-01-12T22:20:14.525Z,1.98
2023-01-12T22:22:42.735Z,1.98
2023-01-12T22:25:11.580Z,2.30
2023-01-12T22:27:38.958Z,2.10
2023-01-12T22:30:06.817Z,2.40
2023-01-12T22:32:33.489Z,2.45
2023-01-12T22:35:00.371Z,1.80
2023-01-12T22:37:30.912Z,2.35
2023-01-12T22:40:01.416Z,2.20
2023-01-12T22:42:48.223Z,2.20
2023-01-12T22:45:15.066Z,2.22
2023-01-12T22:47:48.064Z,2.55
2023-01-12T22:50:21.351Z,1.95
2023-01-12T22:52:52.593Z,1.92
2023-01-12T22:55:21.250Z,2.05
2023-01-12T22:57:48.433Z,1.98
2023-01-12T23:00:18.381Z,2.33
2023-01-12T23:03:01.212Z,3.60
2023-01-12T23:05:56.572Z,2.00
2023-01-12T23:08:24.203Z,2.17
2023-01-12T23:10:51.559Z,2.53
2023-01-12T23:13:21.453Z,2.63
2023-01-12T23:15:55.696Z,2.13
2023-01-12T23:18:29.695Z,2.42
2023-01-12T23:21:02.560Z,2.45
2023-01-12T23:23:31.231Z,2.50
2023-01-12T23:26:06.463Z,2.33
2023-01-12T23:28:36.916Z,2.47
2023-01-12T23:31:06.243Z,2.67
2023-01-12T23:33:33.409Z,2.60
2023-01-12T23:36:11.581Z,2.33
2023-01-12T23:38:38.393Z,2.50
2023-01-12T23:41:19.921Z,2.38
2023-01-12T23:43:48.387Z,2.88
2023-01-12T23:46:20.208Z,3.13
2023-01-12T23:48:47.200Z,2.42
2023-01-12T23:51:14.180Z,2.88
2023-01-12T23:53:41.587Z,2.50
2023-01-12T23:56:11.191Z,2.33
2023-01-12T23:58:38.195Z,2.97
